sensor_id;sensor_type;location;lat;lon;timestamp;pressure;altitude;pressure_sealevel;temperature;humidity
19208;BME280;9737;59.466;18.036;2024-01-30T00:01:11;100080.69;;;-0.07;78.59
19208;BME280;9737;59.466;18.036;2024-01-30T00:03:39;100034.25;;;-0.24;78.56
19208;BME280;9737;59.466;18.036;2024-01-30T00:06:08;100001.34;;;-0.29;78.47
19208;BME280;9737;59.466;18.036;2024-01-30T00:08:36;99961.63;;;-0.39;78.88
19208;BME280;9737;59.466;18.036;2024-01-30T00:11:04;99956.47;;;-0.41;78.53
19208;BME280;9737;59.466;18.036;2024-01-30T00:13:32;99953.84;;;-0.41;79.07
19208;BME280;9737;59.466;18.036;2024-01-30T00:15:59;99947.75;;;-0.41;78.64
19208;BME280;9737;59.466;18.036;2024-01-30T00:18:27;99940.91;;;-0.44;78.62
19208;BME280;9737;59.466;18.036;2024-01-30T00:20:56;99927.94;;;-0.47;79.07
19208;BME280;9737;59.466;18.036;2024-01-30T00:23:25;99902.97;;;-0.54;78.48
19208;BME280;9737;59.466;18.036;2024-01-30T00:25:52;99860.69;;;-0.65;78.62
19208;BME280;9737;59.466;18.036;2024-01-30T00:28:20;99848.66;;;-0.69;79.04
19208;BME280;9737;59.466;18.036;2024-01-30T00:30:48;99808.00;;;-0.76;78.42
19208;BME280;9737;59.466;18.036;2024-01-30T00:33:16;99790.75;;;-0.80;78.50
19208;BME280;9737;59.466;18.036;2024-01-30T00:35:44;99774.41;;;-0.85;78.71
19208;BME280;9737;59.466;18.036;2024-01-30T00:38:12;99746.81;;;-0.93;78.89
19208;BME280;9737;59.466;18.036;2024-01-30T00:40:41;99717.53;;;-1.01;78.63
19208;BME280;9737;59.466;18.036;2024-01-30T00:43:09;99706.38;;;-1.04;78.78
19208;BME280;9737;59.466;18.036;2024-01-30T00:45:37;99697.63;;;-1.03;78.67
19208;BME280;9737;59.466;18.036;2024-01-30T00:48:05;99707.09;;;-1.01;78.80
19208;BME280;9737;59.466;18.036;2024-01-30T00:50:33;99714.94;;;-1.01;78.56
19208;BME280;9737;59.466;18.036;2024-01-30T00:53:01;99705.41;;;-1.02;78.90
19208;BME280;9737;59.466;18.036;2024-01-30T00:55:29;99703.69;;;-1.03;79.21
19208;BME280;9737;59.466;18.036;2024-01-30T00:57:58;99731.38;;;-0.99;78.93
19208;BME280;9737;59.466;18.036;2024-01-30T01:00:26;99734.66;;;-0.94;79.06
19208;BME280;9737;59.466;18.036;2024-01-30T01:02:55;99746.81;;;-0.93;78.54
19208;BME280;9737;59.466;18.036;2024-01-30T01:05:23;99752.88;;;-0.92;79.08
19208;BME280;9737;59.466;18.036;2024-01-30T01:07:51;99753.00;;;-0.95;78.84
19208;BME280;9737;59.466;18.036;2024-01-30T01:10:19;99746.75;;;-0.91;78.66
19208;BME280;9737;59.466;18.036;2024-01-30T01:12:47;99789.97;;;-0.82;79.27
19208;BME280;9737;59.466;18.036;2024-01-30T01:15:17;99781.34;;;-0.84;78.81
19208;BME280;9737;59.466;18.036;2024-01-30T01:17:45;99767.53;;;-0.88;78.71
19208;BME280;9737;59.466;18.036;2024-01-30T01:20:19;99743.34;;;-0.93;79.10
19208;BME280;9737;59.466;18.036;2024-01-30T01:22:46;99733.81;;;-0.94;79.42
19208;BME280;9737;59.466;18.036;2024-01-30T01:25:14;99716.69;;;-1.01;79.19
19208;BME280;9737;59.466;18.036;2024-01-30T01:27:42;99728.72;;;-0.97;79.34
19208;BME280;9737;59.466;18.036;2024-01-30T01:30:19;99726.97;;;-0.97;78.92
19208;BME280;9737;59.466;18.036;2024-01-30T01:32:48;99702.84;;;-1.03;78.90
19208;BME280;9737;59.466;18.036;2024-01-30T01:35:22;99696.91;;;-1.07;79.05
19208;BME280;9737;59.466;18.036;2024-01-30T01:37:51;99682.22;;;-1.09;79.12
19208;BME280;9737;59.466;18.036;2024-01-30T01:40:22;99664.00;;;-1.11;79.26
19208;BME280;9737;59.466;18.036;2024-01-30T01:42:51;99678.81;;;-1.11;79.27
19208;BME280;9737;59.466;18.036;2024-01-30T01:45:21;99683.06;;;-1.09;79.06
19208;BME280;9737;59.466;18.036;2024-01-30T01:47:50;99674.44;;;-1.11;79.31
19208;BME280;9737;59.466;18.036;2024-01-30T01:50:20;99664.13;;;-1.14;79.42
19208;BME280;9737;59.466;18.036;2024-01-30T01:52:50;99664.97;;;-1.13;79.29
19208;BME280;9737;59.466;18.036;2024-01-30T01:55:20;99658.06;;;-1.16;79.38
19208;BME280;9737;59.466;18.036;2024-01-30T01:57:52;99650.25;;;-1.16;79.48
19208;BME280;9737;59.466;18.036;2024-01-30T02:00:22;99653.78;;;-1.17;79.38
19208;BME280;9737;59.466;18.036;2024-01-30T02:02:53;99645.16;;;-1.19;79.41
19208;BME280;9737;59.466;18.036;2024-01-30T02:05:22;99651.22;;;-1.18;79.48
19208;BME280;9737;59.466;18.036;2024-01-30T02:07:51;99662.41;;;-1.15;79.11
19208;BME280;9737;59.466;18.036;2024-01-30T02:10:19;99685.63;;;-1.07;79.26
19208;BME280;9737;59.466;18.036;2024-01-30T02:12:48;99717.53;;;-1.01;79.37
19208;BME280;9737;59.466;18.036;2024-01-30T02:15:16;99753.72;;;-0.91;79.51
19208;BME280;9737;59.466;18.036;2024-01-30T02:17:46;99764.91;;;-0.88;79.19
19208;BME280;9737;59.466;18.036;2024-01-30T02:20:13;99776.97;;;-0.84;79.24
19208;BME280;9737;59.466;18.036;2024-01-30T02:22:43;99788.16;;;-0.80;79.58
19208;BME280;9737;59.466;18.036;2024-01-30T02:25:11;99808.91;;;-0.77;79.70
19208;BME280;9737;59.466;18.036;2024-01-30T02:27:39;99821.00;;;-0.75;79.24
19208;BME280;9737;59.466;18.036;2024-01-30T02:30:08;99810.63;;;-0.76;79.63
19208;BME280;9737;59.466;18.036;2024-01-30T02:32:36;99815.84;;;-0.76;79.69
19208;BME280;9737;59.466;18.036;2024-01-30T02:35:04;99820.16;;;-0.75;79.51
19208;BME280;9737;59.466;18.036;2024-01-30T02:37:32;99824.47;;;-0.74;79.49
19208;BME280;9737;59.466;18.036;2024-01-30T02:40:01;99833.09;;;-0.72;79.84
19208;BME280;9737;59.466;18.036;2024-01-30T02:42:29;99826.16;;;-0.73;79.56
19208;BME280;9737;59.466;18.036;2024-01-30T02:44:57;99820.09;;;-0.74;79.30
19208;BME280;9737;59.466;18.036;2024-01-30T02:47:25;99830.50;;;-0.72;79.49
19208;BME280;9737;59.466;18.036;2024-01-30T02:49:53;99827.88;;;-0.72;79.90
19208;BME280;9737;59.466;18.036;2024-01-30T02:52:22;99833.94;;;-0.72;79.66
19208;BME280;9737;59.466;18.036;2024-01-30T02:54:50;99835.66;;;-0.71;79.67
19208;BME280;9737;59.466;18.036;2024-01-30T02:57:20;99841.72;;;-0.70;79.69
19208;BME280;9737;59.466;18.036;2024-01-30T02:59:48;99837.41;;;-0.71;79.59
19208;BME280;9737;59.466;18.036;2024-01-30T03:02:15;99837.41;;;-0.71;79.97
19208;BME280;9737;59.466;18.036;2024-01-30T03:04:43;99840.81;;;-0.69;79.54
19208;BME280;9737;59.466;18.036;2024-01-30T03:07:11;99857.28;;;-0.67;79.45
19208;BME280;9737;59.466;18.036;2024-01-30T03:09:41;99864.09;;;-0.63;80.03
19208;BME280;9737;59.466;18.036;2024-01-30T03:12:09;99871.13;;;-0.65;79.89
19208;BME280;9737;59.466;18.036;2024-01-30T03:14:38;99890.00;;;-0.57;79.61
19208;BME280;9737;59.466;18.036;2024-01-30T03:17:06;99896.09;;;-0.56;80.13
19208;BME280;9737;59.466;18.036;2024-01-30T03:19:34;99901.25;;;-0.55;79.74
19208;BME280;9737;59.466;18.036;2024-01-30T03:22:02;99911.59;;;-0.52;80.05
19208;BME280;9737;59.466;18.036;2024-01-30T03:24:30;99927.16;;;-0.49;79.85
19208;BME280;9737;59.466;18.036;2024-01-30T03:26:58;99917.59;;;-0.50;79.84
19208;BME280;9737;59.466;18.036;2024-01-30T03:29:27;99923.69;;;-0.49;79.56
19208;BME280;9737;59.466;18.036;2024-01-30T03:31:56;99931.47;;;-0.48;79.54
19208;BME280;9737;59.466;18.036;2024-01-30T03:34:24;99933.16;;;-0.47;80.05
19208;BME280;9737;59.466;18.036;2024-01-30T03:36:53;99923.69;;;-0.49;79.98
19208;BME280;9737;59.466;18.036;2024-01-30T03:39:21;99915.91;;;-0.51;80.10
19208;BME280;9737;59.466;18.036;2024-01-30T03:41:48;99914.19;;;-0.52;80.06
19208;BME280;9737;59.466;18.036;2024-01-30T03:44:16;99902.16;;;-0.56;79.59
19208;BME280;9737;59.466;18.036;2024-01-30T03:46:44;99880.50;;;-0.59;79.91
19208;BME280;9737;59.466;18.036;2024-01-30T03:49:14;99876.25;;;-0.62;80.05
19208;BME280;9737;59.466;18.036;2024-01-30T03:51:42;99870.09;;;-0.61;80.26
19208;BME280;9737;59.466;18.036;2024-01-30T03:54:11;99870.16;;;-0.63;80.32
19208;BME280;9737;59.466;18.036;2024-01-30T03:56:39;99875.38;;;-0.63;80.13
19208;BME280;9737;59.466;18.036;2024-01-30T03:59:07;99857.16;;;-0.64;80.02
19208;BME280;9737;59.466;18.036;2024-01-30T04:01:35;99873.63;;;-0.62;80.44
19208;BME280;9737;59.466;18.036;2024-01-30T04:04:03;99873.63;;;-0.62;79.94
19208;BME280;9737;59.466;18.036;2024-01-30T04:06:32;99878.84;;;-0.62;79.96
19208;BME280;9737;59.466;18.036;2024-01-30T04:09:00;99877.94;;;-0.61;79.81
19208;BME280;9737;59.466;18.036;2024-01-30T04:11:28;99892.66;;;-0.58;80.11
19208;BME280;9737;59.466;18.036;2024-01-30T04:13:58;99891.78;;;-0.57;80.31
19208;BME280;9737;59.466;18.036;2024-01-30T04:16:26;99877.94;;;-0.61;79.82
19208;BME280;9737;59.466;18.036;2024-01-30T04:18:53;99877.94;;;-0.61;80.38
19208;BME280;9737;59.466;18.036;2024-01-30T04:21:22;99884.03;;;-0.60;79.97
19208;BME280;9737;59.466;18.036;2024-01-30T04:23:51;99894.38;;;-0.57;80.51
19208;BME280;9737;59.466;18.036;2024-01-30T04:26:19;99891.72;;;-0.56;80.21
19208;BME280;9737;59.466;18.036;2024-01-30T04:28:47;99902.16;;;-0.56;80.40
19208;BME280;9737;59.466;18.036;2024-01-30T04:31:15;99899.56;;;-0.56;80.54
19208;BME280;9737;59.466;18.036;2024-01-30T04:33:43;99891.78;;;-0.59;80.55
19208;BME280;9737;59.466;18.036;2024-01-30T04:36:11;99886.69;;;-0.62;80.02
19208;BME280;9737;59.466;18.036;2024-01-30T04:38:39;99864.09;;;-0.63;80.53
19208;BME280;9737;59.466;18.036;2024-01-30T04:41:08;99868.47;;;-0.64;80.28
19208;BME280;9737;59.466;18.036;2024-01-30T04:43:36;99857.41;;;-0.70;80.55
19208;BME280;9737;59.466;18.036;2024-01-30T04:46:04;99859.84;;;-0.66;80.76
19208;BME280;9737;59.466;18.036;2024-01-30T04:48:32;99864.22;;;-0.66;80.10
19208;BME280;9737;59.466;18.036;2024-01-30T04:51:00;99850.47;;;-0.71;80.26
19208;BME280;9737;59.466;18.036;2024-01-30T04:53:29;99846.94;;;-0.70;80.14
19208;BME280;9737;59.466;18.036;2024-01-30T04:55:58;99858.97;;;-0.66;80.67
19208;BME280;9737;59.466;18.036;2024-01-30T04:58:27;99854.72;;;-0.69;80.09
19208;BME280;9737;59.466;18.036;2024-01-30T05:00:55;99853.03;;;-0.70;80.57
19208;BME280;9737;59.466;18.036;2024-01-30T05:03:24;99840.03;;;-0.71;80.83
19208;BME280;9737;59.466;18.036;2024-01-30T05:05:52;99854.72;;;-0.69;80.77
19208;BME280;9737;59.466;18.036;2024-01-30T05:08:20;99865.13;;;-0.67;80.47
19208;BME280;9737;59.466;18.036;2024-01-30T05:10:48;99887.47;;;-0.60;80.44
19208;BME280;9737;59.466;18.036;2024-01-30T05:13:16;99893.50;;;-0.58;80.60
19208;BME280;9737;59.466;18.036;2024-01-30T05:15:45;99903.00;;;-0.55;80.92
19208;BME280;9737;59.466;18.036;2024-01-30T05:18:13;99916.03;;;-0.54;80.23
19208;BME280;9737;59.466;18.036;2024-01-30T05:20:41;99924.66;;;-0.52;80.71
19208;BME280;9737;59.466;18.036;2024-01-30T05:23:08;99923.75;;;-0.51;81.00
19208;BME280;9737;59.466;18.036;2024-01-30T05:25:36;99930.66;;;-0.50;80.61
19208;BME280;9737;59.466;18.036;2024-01-30T05:28:06;99931.47;;;-0.48;80.54
19208;BME280;9737;59.466;18.036;2024-01-30T05:30:34;99942.72;;;-0.46;81.01
19208;BME280;9737;59.466;18.036;2024-01-30T05:33:04;99932.31;;;-0.47;80.87
19208;BME280;9737;59.466;18.036;2024-01-30T05:35:32;99928.91;;;-0.49;80.53
19208;BME280;9737;59.466;18.036;2024-01-30T05:38:00;99929.75;;;-0.49;80.84
19208;BME280;9737;59.466;18.036;2024-01-30T05:40:28;99937.53;;;-0.47;80.53
19208;BME280;9737;59.466;18.036;2024-01-30T05:42:56;99944.41;;;-0.45;80.95
19208;BME280;9737;59.466;18.036;2024-01-30T05:45:25;99940.16;;;-0.47;80.44
19208;BME280;9737;59.466;18.036;2024-01-30T05:47:53;99924.66;;;-0.52;81.03
19208;BME280;9737;59.466;18.036;2024-01-30T05:50:22;99922.94;;;-0.53;80.88
19208;BME280;9737;59.466;18.036;2024-01-30T05:52:52;99921.13;;;-0.51;80.93
19208;BME280;9737;59.466;18.036;2024-01-30T05:55:19;99916.97;;;-0.56;80.90
19208;BME280;9737;59.466;18.036;2024-01-30T05:57:47;99929.81;;;-0.50;80.83
19208;BME280;9737;59.466;18.036;2024-01-30T06:00:16;99931.56;;;-0.51;80.85
19208;BME280;9737;59.466;18.036;2024-01-30T06:02:44;99924.66;;;-0.52;81.24
19208;BME280;9737;59.466;18.036;2024-01-30T06:05:12;99892.72;;;-0.60;80.78
19208;BME280;9737;59.466;18.036;2024-01-30T06:07:41;99890.09;;;-0.60;80.94
19208;BME280;9737;59.466;18.036;2024-01-30T06:10:09;99891.78;;;-0.59;80.93
19208;BME280;9737;59.466;18.036;2024-01-30T06:12:37;99899.63;;;-0.59;80.92
19208;BME280;9737;59.466;18.036;2024-01-30T06:15:06;99888.75;;;-0.70;80.83
19208;BME280;9737;59.466;18.036;2024-01-30T06:17:34;99909.09;;;-0.55;80.74
19208;BME280;9737;59.466;18.036;2024-01-30T06:20:05;99903.94;;;-0.56;80.95
19208;BME280;9737;59.466;18.036;2024-01-30T06:22:33;99894.38;;;-0.57;81.14
19208;BME280;9737;59.466;18.036;2024-01-30T06:25:02;99895.31;;;-0.60;81.11
19208;BME280;9737;59.466;18.036;2024-01-30T06:27:30;99900.53;;;-0.60;81.26
19208;BME280;9737;59.466;18.036;2024-01-30T06:29:59;99893.63;;;-0.61;81.31
19208;BME280;9737;59.466;18.036;2024-01-30T06:32:26;99897.03;;;-0.59;80.84
19208;BME280;9737;59.466;18.036;2024-01-30T06:34:55;99904.84;;;-0.57;81.44
19208;BME280;9737;59.466;18.036;2024-01-30T06:37:23;99908.25;;;-0.55;81.41
19208;BME280;9737;59.466;18.036;2024-01-30T06:39:51;99910.91;;;-0.57;81.44
19208;BME280;9737;59.466;18.036;2024-01-30T06:42:20;99912.66;;;-0.57;81.07
19208;BME280;9737;59.466;18.036;2024-01-30T06:44:48;99911.75;;;-0.56;81.08
19208;BME280;9737;59.466;18.036;2024-01-30T06:47:16;99915.22;;;-0.56;81.28
19208;BME280;9737;59.466;18.036;2024-01-30T06:49:44;99922.16;;;-0.55;81.48
19208;BME280;9737;59.466;18.036;2024-01-30T06:52:12;99924.66;;;-0.52;81.16
19208;BME280;9737;59.466;18.036;2024-01-30T06:54:40;99939.31;;;-0.48;81.55
19208;BME280;9737;59.466;18.036;2024-01-30T06:57:08;99971.34;;;-0.43;81.19
19208;BME280;9737;59.466;18.036;2024-01-30T06:59:40;99970.50;;;-0.43;81.26
19208;BME280;9737;59.466;18.036;2024-01-30T07:02:10;99978.28;;;-0.42;81.44
19208;BME280;9737;59.466;18.036;2024-01-30T07:04:38;99972.25;;;-0.44;81.49
19208;BME280;9737;59.466;18.036;2024-01-30T07:07:12;99980.78;;;-0.39;81.32
19208;BME280;9737;59.466;18.036;2024-01-30T07:09:41;99983.38;;;-0.39;81.13
19208;BME280;9737;59.466;18.036;2024-01-30T07:12:09;99980.72;;;-0.37;81.63
19208;BME280;9737;59.466;18.036;2024-01-30T07:14:37;99986.00;;;-0.39;81.63
19208;BME280;9737;59.466;18.036;2024-01-30T07:17:07;99981.69;;;-0.40;81.63
19208;BME280;9737;59.466;18.036;2024-01-30T07:19:34;99991.97;;;-0.35;81.03
19208;BME280;9737;59.466;18.036;2024-01-30T07:22:06;100011.84;;;-0.31;81.36
19208;BME280;9737;59.466;18.036;2024-01-30T07:24:34;100042.97;;;-0.23;81.47
19208;BME280;9737;59.466;18.036;2024-01-30T07:27:02;100046.44;;;-0.23;81.52
19208;BME280;9737;59.466;18.036;2024-01-30T07:29:30;100068.88;;;-0.17;81.54
19208;BME280;9737;59.466;18.036;2024-01-30T07:31:58;100084.34;;;-0.11;81.21
19208;BME280;9737;59.466;18.036;2024-01-30T07:34:27;100107.63;;;-0.05;81.26
19208;BME280;9737;59.466;18.036;2024-01-30T07:36:55;100129.28;;;0.00;81.49
19208;BME280;9737;59.466;18.036;2024-01-30T07:39:23;100140.53;;;0.02;81.56
19208;BME280;9737;59.466;18.036;2024-01-30T07:41:53;100158.69;;;0.07;81.68
19208;BME280;9737;59.466;18.036;2024-01-30T07:44:22;100179.38;;;0.13;81.43
19208;BME280;9737;59.466;18.036;2024-01-30T07:46:50;100197.53;;;0.17;81.21
19208;BME280;9737;59.466;18.036;2024-01-30T07:49:18;100221.75;;;0.22;81.40
19208;BME280;9737;59.466;18.036;2024-01-30T07:51:47;100234.78;;;0.24;81.50
19208;BME280;9737;59.466;18.036;2024-01-30T07:54:17;100244.34;;;0.25;81.46
19208;BME280;9737;59.466;18.036;2024-01-30T07:56:45;100270.25;;;0.33;81.49
19208;BME280;9737;59.466;18.036;2024-01-30T07:59:13;100277.94;;;0.37;81.37
19208;BME280;9737;59.466;18.036;2024-01-30T08:01:41;100291.81;;;0.39;81.44
19208;BME280;9737;59.466;18.036;2024-01-30T08:04:09;100308.28;;;0.43;81.60
19208;BME280;9737;59.466;18.036;2024-01-30T08:06:37;100304.75;;;0.44;81.76
19208;BME280;9737;59.466;18.036;2024-01-30T08:09:11;100316.81;;;0.48;81.70
19208;BME280;9737;59.466;18.036;2024-01-30T08:11:39;100337.63;;;0.51;81.94
19208;BME280;9737;59.466;18.036;2024-01-30T08:14:07;100349.72;;;0.55;81.79
19208;BME280;9737;59.466;18.036;2024-01-30T08:16:35;100356.66;;;0.56;81.94
19208;BME280;9737;59.466;18.036;2024-01-30T08:19:03;100352.31;;;0.55;81.74
19208;BME280;9737;59.466;18.036;2024-01-30T08:21:31;100374.84;;;0.60;81.67
19208;BME280;9737;59.466;18.036;2024-01-30T08:24:06;100393.16;;;0.60;81.86
19208;BME280;9737;59.466;18.036;2024-01-30T08:26:35;100399.06;;;0.67;82.06
19208;BME280;9737;59.466;18.036;2024-01-30T08:29:03;100441.53;;;0.75;81.67
19208;BME280;9737;59.466;18.036;2024-01-30T08:31:31;100432.88;;;0.73;81.80
19208;BME280;9737;59.466;18.036;2024-01-30T08:33:59;100462.16;;;0.84;82.00
19208;BME280;9737;59.466;18.036;2024-01-30T08:36:27;100493.41;;;0.90;82.31
19208;BME280;9737;59.466;18.036;2024-01-30T08:38:55;100490.78;;;0.90;81.51
19208;BME280;9737;59.466;18.036;2024-01-30T08:41:29;100513.41;;;0.93;82.23
19208;BME280;9737;59.466;18.036;2024-01-30T08:44:00;100554.91;;;1.05;81.82
19208;BME280;9737;59.466;18.036;2024-01-30T08:46:28;100586.97;;;1.12;81.72
19208;BME280;9737;59.466;18.036;2024-01-30T08:48:57;100593.03;;;1.14;82.01
19208;BME280;9737;59.466;18.036;2024-01-30T08:51:25;100583.56;;;1.10;81.82
19208;BME280;9737;59.466;18.036;2024-01-30T08:53:53;100578.38;;;1.08;82.39
19208;BME280;9737;59.466;18.036;2024-01-30T08:56:21;100570.50;;;1.08;82.30
19208;BME280;9737;59.466;18.036;2024-01-30T08:58:49;100575.75;;;1.08;82.22
19208;BME280;9737;59.466;18.036;2024-01-30T09:01:19;100599.19;;;1.13;82.35
19208;BME280;9737;59.466;18.036;2024-01-30T09:03:48;100640.72;;;1.25;82.06
19208;BME280;9737;59.466;18.036;2024-01-30T09:06:16;100706.53;;;1.42;82.35
19208;BME280;9737;59.466;18.036;2024-01-30T09:08:44;100739.50;;;1.51;82.07
19208;BME280;9737;59.466;18.036;2024-01-30T09:11:13;100778.56;;;1.59;82.10
19208;BME280;9737;59.466;18.036;2024-01-30T09:13:41;100755.09;;;1.55;82.00
19208;BME280;9737;59.466;18.036;2024-01-30T09:16:10;100765.56;;;1.55;82.28
19208;BME280;9737;59.466;18.036;2024-01-30T09:18:39;100725.59;;;1.49;82.33
19208;BME280;9737;59.466;18.036;2024-01-30T09:21:07;100710.88;;;1.45;82.03
19208;BME280;9737;59.466;18.036;2024-01-30T09:23:35;100715.22;;;1.44;82.50
19208;BME280;9737;59.466;18.036;2024-01-30T09:26:03;100707.41;;;1.43;82.02
19208;BME280;9737;59.466;18.036;2024-01-30T09:28:31;100724.91;;;1.42;82.33
19208;BME280;9737;59.466;18.036;2024-01-30T09:30:59;100771.63;;;1.58;82.44
19208;BME280;9737;59.466;18.036;2024-01-30T09:33:27;100787.25;;;1.61;82.22
19208;BME280;9737;59.466;18.036;2024-01-30T09:35:56;100764.63;;;1.58;82.30
19208;BME280;9737;59.466;18.036;2024-01-30T09:38:24;100792.44;;;1.62;82.37
19208;BME280;9737;59.466;18.036;2024-01-30T09:40:54;100796.72;;;1.65;82.67
19208;BME280;9737;59.466;18.036;2024-01-30T09:43:23;100771.63;;;1.58;82.22
19208;BME280;9737;59.466;18.036;2024-01-30T09:45:53;100788.97;;;1.62;82.63
19208;BME280;9737;59.466;18.036;2024-01-30T09:48:22;100804.56;;;1.66;82.21
19208;BME280;9737;59.466;18.036;2024-01-30T09:50:51;100808.03;;;1.67;82.61
19208;BME280;9737;59.466;18.036;2024-01-30T09:53:21;100854.06;;;1.77;82.52
19208;BME280;9737;59.466;18.036;2024-01-30T09:55:50;100956.50;;;2.00;82.58
19208;BME280;9737;59.466;18.036;2024-01-30T09:58:18;100946.06;;;1.99;82.83
19208;BME280;9737;59.466;18.036;2024-01-30T10:00:46;100944.41;;;1.96;82.20
19208;BME280;9737;59.466;18.036;2024-01-30T10:03:14;100978.16;;;2.08;82.41
19208;BME280;9737;59.466;18.036;2024-01-30T10:05:46;101014.63;;;2.17;82.49
19208;BME280;9737;59.466;18.036;2024-01-30T10:08:18;101059.81;;;2.27;82.86
19208;BME280;9737;59.466;18.036;2024-01-30T10:10:49;101018.16;;;2.16;82.79
19208;BME280;9737;59.466;18.036;2024-01-30T10:13:17;101050.25;;;2.25;82.51
19208;BME280;9737;59.466;18.036;2024-01-30T10:15:47;101090.25;;;2.34;82.47
19208;BME280;9737;59.466;18.036;2024-01-30T10:18:15;101104.16;;;2.38;82.57
19208;BME280;9737;59.466;18.036;2024-01-30T10:21:33;101084.19;;;2.32;82.82
19208;BME280;9737;59.466;18.036;2024-01-30T10:24:02;101113.66;;;2.42;82.71
19208;BME280;9737;59.466;18.036;2024-01-30T10:26:30;101098.13;;;2.34;82.62
19208;BME280;9737;59.466;18.036;2024-01-30T10:29:01;101137.16;;;2.46;82.65
19208;BME280;9737;59.466;18.036;2024-01-30T10:31:29;101118.09;;;2.40;82.64
19208;BME280;9737;59.466;18.036;2024-01-30T10:33:57;101138.91;;;2.46;82.67
19208;BME280;9737;59.466;18.036;2024-01-30T10:36:46;101168.47;;;2.53;82.69
19208;BME280;9737;59.466;18.036;2024-01-30T10:39:17;101185.81;;;2.58;82.71
19208;BME280;9737;59.466;18.036;2024-01-30T10:41:50;101237.13;;;2.71;82.74
19208;BME280;9737;59.466;18.036;2024-01-30T10:44:22;101241.47;;;2.72;82.91
19208;BME280;9737;59.466;18.036;2024-01-30T10:46:56;101294.50;;;2.85;82.82
19208;BME280;9737;59.466;18.036;2024-01-30T10:49:28;101287.53;;;2.84;82.85
19208;BME280;9737;59.466;18.036;2024-01-30T10:51:58;101279.69;;;2.83;82.83
19208;BME280;9737;59.466;18.036;2024-01-30T10:54:27;101279.75;;;2.81;82.63
19208;BME280;9737;59.466;18.036;2024-01-30T10:56:57;101259.75;;;2.75;82.87
19208;BME280;9737;59.466;18.036;2024-01-30T10:59:28;101241.47;;;2.72;82.90
19208;BME280;9737;59.466;18.036;2024-01-30T11:01:57;101246.72;;;2.72;82.55
19208;BME280;9737;59.466;18.036;2024-01-30T11:04:26;101258.00;;;2.76;83.08
19208;BME280;9737;59.466;18.036;2024-01-30T11:06:54;101244.13;;;2.71;82.70
19208;BME280;9737;59.466;18.036;2024-01-30T11:09:24;101252.75;;;2.76;82.92
19208;BME280;9737;59.466;18.036;2024-01-30T11:11:55;101258.84;;;2.76;83.05
19208;BME280;9737;59.466;18.036;2024-01-30T11:14:28;101278.84;;;2.82;82.79
19208;BME280;9737;59.466;18.036;2024-01-30T11:16:57;101298.91;;;2.85;82.84
19208;BME280;9737;59.466;18.036;2024-01-30T11:19:26;101348.47;;;2.98;82.98
19208;BME280;9737;59.466;18.036;2024-01-30T11:21:55;101417.22;;;3.14;82.88
19208;BME280;9737;59.466;18.036;2024-01-30T11:24:25;101489.50;;;3.32;82.68
19208;BME280;9737;59.466;18.036;2024-01-30T11:26:55;101549.63;;;3.46;82.81
19208;BME280;9737;59.466;18.036;2024-01-30T11:29:24;101598.38;;;3.59;82.75
19208;BME280;9737;59.466;18.036;2024-01-30T11:31:52;101648.03;;;3.71;83.08
19208;BME280;9737;59.466;18.036;2024-01-30T11:34:21;101633.25;;;3.67;83.10
19208;BME280;9737;59.466;18.036;2024-01-30T11:36:52;101670.72;;;3.77;83.07
19208;BME280;9737;59.466;18.036;2024-01-30T11:39:23;101669.88;;;3.76;83.00
19208;BME280;9737;59.466;18.036;2024-01-30T11:41:53;101698.69;;;3.81;82.79
19208;BME280;9737;59.466;18.036;2024-01-30T11:44:21;101691.66;;;3.81;83.08
19208;BME280;9737;59.466;18.036;2024-01-30T11:46:50;101622.81;;;3.64;82.99
19208;BME280;9737;59.466;18.036;2024-01-30T11:49:18;101588.91;;;3.53;82.65
19208;BME280;9737;59.466;18.036;2024-01-30T11:51:47;101543.50;;;3.45;82.83
19208;BME280;9737;59.466;18.036;2024-01-30T11:54:16;101515.63;;;3.38;83.11
19208;BME280;9737;59.466;18.036;2024-01-30T11:56:44;101492.19;;;3.30;83.06
19208;BME280;9737;59.466;18.036;2024-01-30T11:59:13;101490.47;;;3.29;82.96
19208;BME280;9737;59.466;18.036;2024-01-30T12:01:41;101483.47;;;3.28;82.90
19208;BME280;9737;59.466;18.036;2024-01-30T12:04:11;101482.66;;;3.26;83.21
19208;BME280;9737;59.466;18.036;2024-01-30T12:06:39;101478.22;;;3.28;82.87
19208;BME280;9737;59.466;18.036;2024-01-30T12:09:09;101457.50;;;3.16;82.98
19208;BME280;9737;59.466;18.036;2024-01-30T12:11:44;101506.16;;;3.32;83.18
19208;BME280;9737;59.466;18.036;2024-01-30T12:14:14;101511.31;;;3.35;82.82
19208;BME280;9737;59.466;18.036;2024-01-30T12:16:43;101487.78;;;3.31;82.99
19208;BME280;9737;59.466;18.036;2024-01-30T12:19:21;101518.31;;;3.36;83.00
19208;BME280;9737;59.466;18.036;2024-01-30T12:21:54;101567.94;;;3.50;83.05
19208;BME280;9737;59.466;18.036;2024-01-30T12:24:22;101521.94;;;3.32;83.37
19208;BME280;9737;59.466;18.036;2024-01-30T12:26:51;101515.63;;;3.38;83.00
19208;BME280;9737;59.466;18.036;2024-01-30T12:29:21;101540.09;;;3.41;83.06
19208;BME280;9737;59.466;18.036;2024-01-30T12:31:52;101553.97;;;3.47;82.95
19208;BME280;9737;59.466;18.036;2024-01-30T12:34:21;101581.03;;;3.52;82.93
19208;BME280;9737;59.466;18.036;2024-01-30T12:36:49;101592.34;;;3.55;83.07
19208;BME280;9737;59.466;18.036;2024-01-30T12:39:17;101598.44;;;3.57;83.27
19208;BME280;9737;59.466;18.036;2024-01-30T12:41:45;101611.53;;;3.59;83.08
19208;BME280;9737;59.466;18.036;2024-01-30T12:44:14;101600.28;;;3.54;83.43
19208;BME280;9737;59.466;18.036;2024-01-30T12:46:43;101689.94;;;3.80;83.23
19208;BME280;9737;59.466;18.036;2024-01-30T12:49:14;101720.47;;;3.87;83.22
19208;BME280;9737;59.466;18.036;2024-01-30T12:51:42;101743.16;;;3.91;83.50
19208;BME280;9737;59.466;18.036;2024-01-30T12:54:12;101765.78;;;3.98;82.93
19208;BME280;9737;59.466;18.036;2024-01-30T12:56:40;101844.34;;;4.17;82.94
19208;BME280;9737;59.466;18.036;2024-01-30T12:59:08;101856.53;;;4.21;82.87
19208;BME280;9737;59.466;18.036;2024-01-30T13:01:36;101825.97;;;4.14;83.33
19208;BME280;9737;59.466;18.036;2024-01-30T13:04:05;101810.25;;;4.11;83.47
19208;BME280;9737;59.466;18.036;2024-01-30T13:06:33;101778.00;;;4.01;83.58
19208;BME280;9737;59.466;18.036;2024-01-30T13:09:01;101748.34;;;3.94;82.98